sensor_id;sensor_type;location;lat;lon;timestamp;P1;durP1;ratioP1;P2;durP2;ratioP2
60086;SDS011;45960;53.630;55.972;2023-05-16T00:00:10;35.17;;;20.27;;
60086;SDS011;45960;53.630;55.972;2023-05-16T00:01:11;34.90;;;19.63;;
60086;SDS011;45960;53.630;55.972;2023-05-16T00:02:12;35.05;;;19.95;;
60086;SDS011;45960;53.630;55.972;2023-05-16T00:03:13;33.38;;;20.80;;
60086;SDS011;45960;53.630;55.972;2023-05-16T00:04:14;32.08;;;20.35;;
60086;SDS011;45960;53.630;55.972;2023-05-16T00:05:17;33.40;;;20.38;;
60086;SDS011;45960;53.630;55.972;2023-05-16T00:06:18;33.92;;;21.40;;
60086;SDS011;45960;53.630;55.972;2023-05-16T00:07:19;36.15;;;19.48;;
60086;SDS011;45960;53.630;55.972;2023-05-16T00:08:20;34.33;;;20.67;;
60086;SDS011;45960;53.630;55.972;2023-05-16T00:09:21;33.30;;;20.25;;
60086;SDS011;45960;53.630;55.972;2023-05-16T00:10:22;35.42;;;19.52;;
60086;SDS011;45960;53.630;55.972;2023-05-16T00:11:23;33.72;;;20.27;;
60086;SDS011;45960;53.630;55.972;2023-05-16T00:12:25;28.98;;;19.20;;
60086;SDS011;45960;53.630;55.972;2023-05-16T00:13:28;31.90;;;19.65;;
60086;SDS011;45960;53.630;55.972;2023-05-16T00:14:29;34.53;;;20.90;;
60086;SDS011;45960;53.630;55.972;2023-05-16T00:15:30;33.20;;;20.65;;
60086;SDS011;45960;53.630;55.972;2023-05-16T00:16:32;36.15;;;20.20;;
60086;SDS011;45960;53.630;55.972;2023-05-16T00:17:36;34.63;;;20.23;;
60086;SDS011;45960;53.630;55.972;2023-05-16T00:18:38;37.15;;;19.35;;
60086;SDS011;45960;53.630;55.972;2023-05-16T00:19:39;32.75;;;20.42;;
60086;SDS011;45960;53.630;55.972;2023-05-16T00:20:41;35.90;;;20.55;;
60086;SDS011;45960;53.630;55.972;2023-05-16T00:21:42;32.78;;;20.80;;
60086;SDS011;45960;53.630;55.972;2023-05-16T00:22:44;37.97;;;20.17;;
60086;SDS011;45960;53.630;55.972;2023-05-16T00:23:45;35.63;;;21.65;;
60086;SDS011;45960;53.630;55.972;2023-05-16T00:24:46;33.30;;;20.60;;
60086;SDS011;45960;53.630;55.972;2023-05-16T00:25:47;34.88;;;20.08;;
60086;SDS011;45960;53.630;55.972;2023-05-16T00:26:48;30.08;;;19.38;;
60086;SDS011;45960;53.630;55.972;2023-05-16T00:27:50;33.83;;;20.42;;
60086;SDS011;45960;53.630;55.972;2023-05-16T00:28:51;32.88;;;19.75;;
60086;SDS011;45960;53.630;55.972;2023-05-16T00:29:52;35.50;;;20.35;;
60086;SDS011;45960;53.630;55.972;2023-05-16T00:30:53;33.72;;;19.50;;
60086;SDS011;45960;53.630;55.972;2023-05-16T00:31:56;37.25;;;21.05;;
60086;SDS011;45960;53.630;55.972;2023-05-16T00:32:58;37.30;;;20.55;;
60086;SDS011;45960;53.630;55.972;2023-05-16T00:35:23;32.38;;;18.92;;
60086;SDS011;45960;53.630;55.972;2023-05-16T00:36:27;32.22;;;18.20;;
60086;SDS011;45960;53.630;55.972;2023-05-16T00:37:28;33.10;;;20.30;;
60086;SDS011;45960;53.630;55.972;2023-05-16T00:38:29;36.45;;;20.73;;
60086;SDS011;45960;53.630;55.972;2023-05-16T00:39:30;35.92;;;19.67;;
60086;SDS011;45960;53.630;55.972;2023-05-16T00:40:32;35.00;;;20.02;;
60086;SDS011;45960;53.630;55.972;2023-05-16T00:41:33;33.63;;;20.02;;
60086;SDS011;45960;53.630;55.972;2023-05-16T00:42:34;31.60;;;18.60;;
60086;SDS011;45960;53.630;55.972;2023-05-16T00:43:35;31.67;;;19.48;;
60086;SDS011;45960;53.630;55.972;2023-05-16T00:44:36;34.95;;;20.80;;
60086;SDS011;45960;53.630;55.972;2023-05-16T00:45:37;35.28;;;20.48;;
60086;SDS011;45960;53.630;55.972;2023-05-16T00:46:38;32.47;;;19.83;;
60086;SDS011;45960;53.630;55.972;2023-05-16T00:47:39;34.47;;;20.65;;
60086;SDS011;45960;53.630;55.972;2023-05-16T00:48:41;34.17;;;21.30;;
60086;SDS011;45960;53.630;55.972;2023-05-16T00:49:42;28.05;;;17.95;;
60086;SDS011;45960;53.630;55.972;2023-05-16T00:50:43;31.95;;;21.35;;
60086;SDS011;45960;53.630;55.972;2023-05-16T00:51:45;29.98;;;19.48;;
60086;SDS011;45960;53.630;55.972;2023-05-16T00:52:47;36.17;;;20.27;;
60086;SDS011;45960;53.630;55.972;2023-05-16T00:53:48;33.92;;;21.73;;
60086;SDS011;45960;53.630;55.972;2023-05-16T00:54:49;33.38;;;20.95;;
60086;SDS011;45960;53.630;55.972;2023-05-16T00:55:51;33.40;;;19.08;;
60086;SDS011;45960;53.630;55.972;2023-05-16T00:56:52;30.80;;;19.17;;
60086;SDS011;45960;53.630;55.972;2023-05-16T00:57:53;30.88;;;19.50;;
60086;SDS011;45960;53.630;55.972;2023-05-16T00:58:55;35.47;;;20.40;;
60086;SDS011;45960;53.630;55.972;2023-05-16T00:59:57;35.67;;;19.08;;
60086;SDS011;45960;53.630;55.972;2023-05-16T01:00:59;30.75;;;18.10;;
60086;SDS011;45960;53.630;55.972;2023-05-16T01:02:03;33.83;;;20.00;;
60086;SDS011;45960;53.630;55.972;2023-05-16T01:03:04;31.42;;;19.42;;
60086;SDS011;45960;53.630;55.972;2023-05-16T01:04:06;32.00;;;20.05;;
60086;SDS011;45960;53.630;55.972;2023-05-16T01:05:08;37.78;;;21.33;;
60086;SDS011;45960;53.630;55.972;2023-05-16T01:06:09;38.13;;;20.88;;
60086;SDS011;45960;53.630;55.972;2023-05-16T01:07:13;36.25;;;19.70;;
60086;SDS011;45960;53.630;55.972;2023-05-16T01:08:14;33.40;;;19.55;;
60086;SDS011;45960;53.630;55.972;2023-05-16T01:09:15;35.88;;;21.00;;
60086;SDS011;45960;53.630;55.972;2023-05-16T01:10:16;33.25;;;20.05;;
60086;SDS011;45960;53.630;55.972;2023-05-16T01:11:21;32.47;;;19.35;;
60086;SDS011;45960;53.630;55.972;2023-05-16T01:12:40;35.10;;;20.58;;
60086;SDS011;45960;53.630;55.972;2023-05-16T01:13:59;33.88;;;19.48;;
60086;SDS011;45960;53.630;55.972;2023-05-16T01:16:35;37.03;;;19.10;;
60086;SDS011;45960;53.630;55.972;2023-05-16T01:20:32;33.60;;;19.95;;
60086;SDS011;45960;53.630;55.972;2023-05-16T01:21:48;30.70;;;17.58;;
60086;SDS011;45960;53.630;55.972;2023-05-16T01:25:21;35.05;;;19.05;;
60086;SDS011;45960;53.630;55.972;2023-05-16T01:26:31;32.00;;;16.85;;
60086;SDS011;45960;53.630;55.972;2023-05-16T01:27:33;31.10;;;18.02;;
60086;SDS011;45960;53.630;55.972;2023-05-16T01:28:35;34.60;;;21.23;;
60086;SDS011;45960;53.630;55.972;2023-05-16T01:29:38;31.65;;;19.23;;
60086;SDS011;45960;53.630;55.972;2023-05-16T01:30:40;35.55;;;20.42;;
60086;SDS011;45960;53.630;55.972;2023-05-16T01:31:42;36.47;;;20.10;;
60086;SDS011;45960;53.630;55.972;2023-05-16T01:32:43;36.88;;;20.77;;
60086;SDS011;45960;53.630;55.972;2023-05-16T01:33:44;31.63;;;18.58;;
60086;SDS011;45960;53.630;55.972;2023-05-16T01:34:46;38.33;;;20.52;;
60086;SDS011;45960;53.630;55.972;2023-05-16T01:36:04;32.90;;;20.15;;
60086;SDS011;45960;53.630;55.972;2023-05-16T01:37:29;36.88;;;20.45;;
60086;SDS011;45960;53.630;55.972;2023-05-16T01:40:44;32.53;;;17.33;;
60086;SDS011;45960;53.630;55.972;2023-05-16T01:43:07;33.13;;;19.13;;
60086;SDS011;45960;53.630;55.972;2023-05-16T01:45:34;36.83;;;21.63;;
60086;SDS011;45960;53.630;55.972;2023-05-16T01:47:51;35.45;;;20.30;;
60086;SDS011;45960;53.630;55.972;2023-05-16T01:50:16;44.78;;;20.33;;
60086;SDS011;45960;53.630;55.972;2023-05-16T01:51:21;39.30;;;20.52;;
60086;SDS011;45960;53.630;55.972;2023-05-16T01:52:34;38.83;;;20.58;;
60086;SDS011;45960;53.630;55.972;2023-05-16T01:53:37;32.85;;;20.52;;
60086;SDS011;45960;53.630;55.972;2023-05-16T01:54:42;42.20;;;22.27;;
60086;SDS011;45960;53.630;55.972;2023-05-16T01:55:49;39.15;;;20.90;;
60086;SDS011;45960;53.630;55.972;2023-05-16T01:56:52;39.17;;;20.95;;
60086;SDS011;45960;53.630;55.972;2023-05-16T01:57:55;58.13;;;21.17;;
60086;SDS011;45960;53.630;55.972;2023-05-16T01:58:58;45.55;;;22.88;;
60086;SDS011;45960;53.630;55.972;2023-05-16T02:00:02;39.42;;;22.38;;
60086;SDS011;45960;53.630;55.972;2023-05-16T02:01:04;46.40;;;21.38;;
60086;SDS011;45960;53.630;55.972;2023-05-16T02:02:06;43.60;;;21.58;;
60086;SDS011;45960;53.630;55.972;2023-05-16T02:03:08;37.28;;;21.80;;
60086;SDS011;45960;53.630;55.972;2023-05-16T02:04:09;39.13;;;21.33;;
60086;SDS011;45960;53.630;55.972;2023-05-16T02:05:10;37.05;;;20.77;;
60086;SDS011;45960;53.630;55.972;2023-05-16T02:06:11;35.65;;;21.48;;
60086;SDS011;45960;53.630;55.972;2023-05-16T02:07:12;38.13;;;22.20;;
60086;SDS011;45960;53.630;55.972;2023-05-16T02:08:19;36.95;;;21.85;;
60086;SDS011;45960;53.630;55.972;2023-05-16T02:09:23;38.17;;;21.00;;
60086;SDS011;45960;53.630;55.972;2023-05-16T02:10:25;35.10;;;20.95;;
60086;SDS011;45960;53.630;55.972;2023-05-16T02:11:27;35.90;;;21.42;;
60086;SDS011;45960;53.630;55.972;2023-05-16T02:12:28;37.53;;;21.00;;
60086;SDS011;45960;53.630;55.972;2023-05-16T02:13:29;68.55;;;23.70;;
60086;SDS011;45960;53.630;55.972;2023-05-16T02:14:30;35.47;;;22.48;;
60086;SDS011;45960;53.630;55.972;2023-05-16T02:15:31;34.50;;;20.90;;
60086;SDS011;45960;53.630;55.972;2023-05-16T02:16:33;37.08;;;20.77;;
60086;SDS011;45960;53.630;55.972;2023-05-16T02:17:34;34.20;;;19.95;;
60086;SDS011;45960;53.630;55.972;2023-05-16T02:18:35;41.15;;;22.45;;
60086;SDS011;45960;53.630;55.972;2023-05-16T02:19:38;32.47;;;19.77;;
60086;SDS011;45960;53.630;55.972;2023-05-16T02:20:40;33.70;;;20.00;;
60086;SDS011;45960;53.630;55.972;2023-05-16T02:21:41;35.17;;;20.77;;
60086;SDS011;45960;53.630;55.972;2023-05-16T02:22:43;36.22;;;20.30;;
60086;SDS011;45960;53.630;55.972;2023-05-16T02:23:46;34.08;;;21.23;;
60086;SDS011;45960;53.630;55.972;2023-05-16T02:24:47;39.30;;;20.95;;
60086;SDS011;45960;53.630;55.972;2023-05-16T02:25:48;35.13;;;21.05;;
60086;SDS011;45960;53.630;55.972;2023-05-16T02:26:49;37.63;;;21.38;;
60086;SDS011;45960;53.630;55.972;2023-05-16T02:27:50;39.20;;;20.77;;
60086;SDS011;45960;53.630;55.972;2023-05-16T02:28:51;32.60;;;20.27;;
60086;SDS011;45960;53.630;55.972;2023-05-16T02:29:54;38.25;;;19.80;;
60086;SDS011;45960;53.630;55.972;2023-05-16T02:30:58;36.55;;;19.48;;
60086;SDS011;45960;53.630;55.972;2023-05-16T02:32:00;34.40;;;21.35;;
60086;SDS011;45960;53.630;55.972;2023-05-16T02:33:01;41.78;;;19.92;;
60086;SDS011;45960;53.630;55.972;2023-05-16T02:34:04;36.50;;;20.20;;
60086;SDS011;45960;53.630;55.972;2023-05-16T02:35:05;32.97;;;19.85;;
60086;SDS011;45960;53.630;55.972;2023-05-16T02:36:07;33.95;;;20.63;;
60086;SDS011;45960;53.630;55.972;2023-05-16T02:37:09;39.72;;;20.17;;
60086;SDS011;45960;53.630;55.972;2023-05-16T02:38:11;40.35;;;21.27;;
60086;SDS011;45960;53.630;55.972;2023-05-16T02:39:17;67.82;;;21.85;;
60086;SDS011;45960;53.630;55.972;2023-05-16T02:40:18;30.90;;;20.40;;
60086;SDS011;45960;53.630;55.972;2023-05-16T02:41:19;39.35;;;20.63;;
60086;SDS011;45960;53.630;55.972;2023-05-16T02:42:24;37.90;;;19.80;;
60086;SDS011;45960;53.630;55.972;2023-05-16T02:43:26;36.03;;;19.88;;
60086;SDS011;45960;53.630;55.972;2023-05-16T02:44:28;34.97;;;19.48;;
60086;SDS011;45960;53.630;55.972;2023-05-16T02:45:29;43.25;;;20.52;;
60086;SDS011;45960;53.630;55.972;2023-05-16T02:46:31;33.17;;;19.05;;
60086;SDS011;45960;53.630;55.972;2023-05-16T02:47:33;39.88;;;20.60;;
60086;SDS011;45960;53.630;55.972;2023-05-16T02:48:34;36.75;;;21.83;;
60086;SDS011;45960;53.630;55.972;2023-05-16T02:49:35;31.77;;;18.92;;
60086;SDS011;45960;53.630;55.972;2023-05-16T02:50:36;33.97;;;20.33;;
60086;SDS011;45960;53.630;55.972;2023-05-16T02:51:39;37.67;;;20.05;;
60086;SDS011;45960;53.630;55.972;2023-05-16T02:52:41;38.08;;;19.52;;
60086;SDS011;45960;53.630;55.972;2023-05-16T02:53:42;31.98;;;20.23;;
60086;SDS011;45960;53.630;55.972;2023-05-16T02:54:43;32.08;;;20.23;;
60086;SDS011;45960;53.630;55.972;2023-05-16T02:55:44;32.67;;;20.67;;
60086;SDS011;45960;53.630;55.972;2023-05-16T02:56:47;33.67;;;20.05;;
60086;SDS011;45960;53.630;55.972;2023-05-16T02:57:48;33.15;;;20.33;;
60086;SDS011;45960;53.630;55.972;2023-05-16T02:58:50;50.05;;;20.42;;
60086;SDS011;45960;53.630;55.972;2023-05-16T02:59:51;34.10;;;19.48;;
60086;SDS011;45960;53.630;55.972;2023-05-16T03:00:52;31.17;;;18.83;;
60086;SDS011;45960;53.630;55.972;2023-05-16T03:01:53;35.55;;;20.33;;
60086;SDS011;45960;53.630;55.972;2023-05-16T03:02:54;33.55;;;18.88;;
60086;SDS011;45960;53.630;55.972;2023-05-16T03:03:55;32.40;;;20.05;;
60086;SDS011;45960;53.630;55.972;2023-05-16T03:04:57;33.38;;;19.27;;
60086;SDS011;45960;53.630;55.972;2023-05-16T03:05:58;31.48;;;20.55;;
60086;SDS011;45960;53.630;55.972;2023-05-16T03:07:00;28.17;;;18.98;;
60086;SDS011;45960;53.630;55.972;2023-05-16T03:08:01;32.72;;;17.98;;
60086;SDS011;45960;53.630;55.972;2023-05-16T03:09:02;35.40;;;18.73;;
60086;SDS011;45960;53.630;55.972;2023-05-16T03:10:03;33.88;;;20.92;;
60086;SDS011;45960;53.630;55.972;2023-05-16T03:11:05;36.25;;;19.33;;
60086;SDS011;45960;53.630;55.972;2023-05-16T03:12:06;32.80;;;19.73;;
60086;SDS011;45960;53.630;55.972;2023-05-16T03:13:08;30.85;;;19.73;;
60086;SDS011;45960;53.630;55.972;2023-05-16T03:14:09;31.55;;;20.20;;
60086;SDS011;45960;53.630;55.972;2023-05-16T03:15:11;39.00;;;21.77;;
60086;SDS011;45960;53.630;55.972;2023-05-16T03:16:13;32.70;;;19.17;;
60086;SDS011;45960;53.630;55.972;2023-05-16T03:17:15;41.05;;;19.85;;
60086;SDS011;45960;53.630;55.972;2023-05-16T03:18:16;30.38;;;19.10;;
60086;SDS011;45960;53.630;55.972;2023-05-16T03:19:17;37.55;;;22.35;;
60086;SDS011;45960;53.630;55.972;2023-05-16T03:20:18;30.60;;;20.27;;
60086;SDS011;45960;53.630;55.972;2023-05-16T03:21:19;29.33;;;20.02;;
60086;SDS011;45960;53.630;55.972;2023-05-16T03:22:20;34.13;;;20.45;;
60086;SDS011;45960;53.630;55.972;2023-05-16T03:23:21;42.20;;;22.67;;
60086;SDS011;45960;53.630;55.972;2023-05-16T03:24:23;32.38;;;20.45;;
60086;SDS011;45960;53.630;55.972;2023-05-16T03:25:24;32.83;;;20.02;;
60086;SDS011;45960;53.630;55.972;2023-05-16T03:26:26;33.70;;;20.50;;
60086;SDS011;45960;53.630;55.972;2023-05-16T03:27:27;35.20;;;22.38;;
60086;SDS011;45960;53.630;55.972;2023-05-16T03:28:28;38.13;;;20.95;;
60086;SDS011;45960;53.630;55.972;2023-05-16T03:29:30;38.55;;;20.10;;
60086;SDS011;45960;53.630;55.972;2023-05-16T03:30:31;38.10;;;21.60;;
60086;SDS011;45960;53.630;55.972;2023-05-16T03:31:32;41.95;;;20.35;;
60086;SDS011;45960;53.630;55.972;2023-05-16T03:32:33;35.92;;;21.58;;
60086;SDS011;45960;53.630;55.972;2023-05-16T03:33:35;32.92;;;20.33;;
60086;SDS011;45960;53.630;55.972;2023-05-16T03:34:36;34.97;;;21.25;;
60086;SDS011;45960;53.630;55.972;2023-05-16T03:35:37;29.58;;;20.00;;
60086;SDS011;45960;53.630;55.972;2023-05-16T03:36:40;32.20;;;20.23;;
60086;SDS011;45960;53.630;55.972;2023-05-16T03:37:41;37.30;;;22.50;;
60086;SDS011;45960;53.630;55.972;2023-05-16T03:38:42;32.40;;;20.33;;
60086;SDS011;45960;53.630;55.972;2023-05-16T03:39:44;42.58;;;22.40;;
60086;SDS011;45960;53.630;55.972;2023-05-16T03:40:45;40.92;;;23.27;;
60086;SDS011;45960;53.630;55.972;2023-05-16T03:41:46;49.65;;;23.48;;
60086;SDS011;45960;53.630;55.972;2023-05-16T03:42:47;35.95;;;21.42;;
60086;SDS011;45960;53.630;55.972;2023-05-16T03:43:49;33.70;;;21.75;;
60086;SDS011;45960;53.630;55.972;2023-05-16T03:44:49;36.55;;;23.02;;
60086;SDS011;45960;53.630;55.972;2023-05-16T03:45:51;40.53;;;23.48;;
60086;SDS011;45960;53.630;55.972;2023-05-16T03:46:52;42.33;;;24.65;;
60086;SDS011;45960;53.630;55.972;2023-05-16T03:47:55;49.13;;;25.33;;
60086;SDS011;45960;53.630;55.972;2023-05-16T03:48:56;47.05;;;25.23;;
60086;SDS011;45960;53.630;55.972;2023-05-16T03:49:58;47.97;;;26.38;;
60086;SDS011;45960;53.630;55.972;2023-05-16T03:50:59;49.92;;;26.75;;
60086;SDS011;45960;53.630;55.972;2023-05-16T03:52:01;49.58;;;27.33;;
60086;SDS011;45960;53.630;55.972;2023-05-16T03:53:03;50.90;;;28.33;;
60086;SDS011;45960;53.630;55.972;2023-05-16T03:54:05;44.78;;;25.75;;
60086;SDS011;45960;53.630;55.972;2023-05-16T03:55:06;39.83;;;24.10;;
60086;SDS011;45960;53.630;55.972;2023-05-16T03:56:07;45.13;;;25.08;;
60086;SDS011;45960;53.630;55.972;2023-05-16T03:57:08;43.00;;;25.85;;
60086;SDS011;45960;53.630;55.972;2023-05-16T03:58:10;57.53;;;28.05;;
60086;SDS011;45960;53.630;55.972;2023-05-16T03:59:12;51.92;;;26.77;;
60086;SDS011;45960;53.630;55.972;2023-05-16T04:00:13;50.35;;;28.33;;
60086;SDS011;45960;53.630;55.972;2023-05-16T04:01:15;52.53;;;26.65;;
60086;SDS011;45960;53.630;55.972;2023-05-16T04:02:16;43.17;;;25.67;;
60086;SDS011;45960;53.630;55.972;2023-05-16T04:03:17;49.03;;;26.70;;
60086;SDS011;45960;53.630;55.972;2023-05-16T04:04:18;47.33;;;26.98;;
60086;SDS011;45960;53.630;55.972;2023-05-16T04:05:19;44.63;;;25.83;;
60086;SDS011;45960;53.630;55.972;2023-05-16T04:06:20;46.72;;;26.90;;
60086;SDS011;45960;53.630;55.972;2023-05-16T04:07:21;45.72;;;24.00;;
60086;SDS011;45960;53.630;55.972;2023-05-16T04:08:22;45.22;;;25.17;;
60086;SDS011;45960;53.630;55.972;2023-05-16T04:09:23;43.08;;;23.45;;
60086;SDS011;45960;53.630;55.972;2023-05-16T04:10:24;39.85;;;21.20;;
60086;SDS011;45960;53.630;55.972;2023-05-16T04:11:27;38.35;;;21.90;;
60086;SDS011;45960;53.630;55.972;2023-05-16T04:12:28;38.88;;;20.08;;
60086;SDS011;45960;53.630;55.972;2023-05-16T04:13:29;42.20;;;22.63;;
60086;SDS011;45960;53.630;55.972;2023-05-16T04:14:31;43.03;;;20.98;;
60086;SDS011;45960;53.630;55.972;2023-05-16T04:15:33;48.45;;;21.00;;
60086;SDS011;45960;53.630;55.972;2023-05-16T04:16:34;31.33;;;21.75;;
60086;SDS011;45960;53.630;55.972;2023-05-16T04:17:35;42.35;;;21.17;;
60086;SDS011;45960;53.630;55.972;2023-05-16T04:18:36;40.50;;;21.95;;
60086;SDS011;45960;53.630;55.972;2023-05-16T04:19:38;35.00;;;22.42;;
60086;SDS011;45960;53.630;55.972;2023-05-16T04:20:40;33.70;;;21.33;;
60086;SDS011;45960;53.630;55.972;2023-05-16T04:21:42;35.35;;;21.50;;
60086;SDS011;45960;53.630;55.972;2023-05-16T04:22:45;41.95;;;21.25;;
60086;SDS011;45960;53.630;55.972;2023-05-16T04:23:47;36.72;;;22.65;;
60086;SDS011;45960;53.630;55.972;2023-05-16T04:24:48;38.42;;;22.25;;
60086;SDS011;45960;53.630;55.972;2023-05-16T04:25:49;44.63;;;21.98;;
60086;SDS011;45960;53.630;55.972;2023-05-16T04:26:50;41.00;;;21.50;;
60086;SDS011;45960;53.630;55.972;2023-05-16T04:27:52;41.20;;;21.50;;
60086;SDS011;45960;53.630;55.972;2023-05-16T04:28:53;33.50;;;20.20;;
60086;SDS011;45960;53.630;55.972;2023-05-16T04:29:54;37.33;;;22.75;;
60086;SDS011;45960;53.630;55.972;2023-05-16T04:30:55;29.67;;;19.98;;
60086;SDS011;45960;53.630;55.972;2023-05-16T04:31:56;28.60;;;18.33;;
60086;SDS011;45960;53.630;55.972;2023-05-16T04:32:57;30.88;;;19.98;;
60086;SDS011;45960;53.630;55.972;2023-05-16T04:33:58;32.88;;;21.00;;
60086;SDS011;45960;53.630;55.972;2023-05-16T04:35:00;31.30;;;19.23;;
60086;SDS011;45960;53.630;55.972;2023-05-16T04:36:01;32.05;;;19.55;;
60086;SDS011;45960;53.630;55.972;2023-05-16T04:37:03;27.33;;;18.30;;
60086;SDS011;45960;53.630;55.972;2023-05-16T04:38:05;30.73;;;21.02;;
60086;SDS011;45960;53.630;55.972;2023-05-16T04:39:06;34.80;;;21.20;;
60086;SDS011;45960;53.630;55.972;2023-05-16T04:40:07;35.47;;;21.08;;
60086;SDS011;45960;53.630;55.972;2023-05-16T04:41:09;44.70;;;21.77;;
60086;SDS011;45960;53.630;55.972;2023-05-16T04:42:10;37.00;;;21.27;;
60086;SDS011;45960;53.630;55.972;2023-05-16T04:43:11;40.60;;;20.58;;
60086;SDS011;45960;53.630;55.972;2023-05-16T04:44:12;48.00;;;22.27;;
60086;SDS011;45960;53.630;55.972;2023-05-16T04:45:14;55.92;;;23.67;;
60086;SDS011;45960;53.630;55.972;2023-05-16T04:46:15;57.60;;;22.88;;
60086;SDS011;45960;53.630;55.972;2023-05-16T04:47:16;50.13;;;23.45;;
60086;SDS011;45960;53.630;55.972;2023-05-16T04:48:17;72.07;;;25.50;;
60086;SDS011;45960;53.630;55.972;2023-05-16T04:49:19;65.57;;;24.88;;
60086;SDS011;45960;53.630;55.972;2023-05-16T04:50:20;61.10;;;24.10;;
60086;SDS011;45960;53.630;55.972;2023-05-16T04:51:21;59.97;;;22.90;;
60086;SDS011;45960;53.630;55.972;2023-05-16T04:52:22;55.53;;;24.48;;
60086;SDS011;45960;53.630;55.972;2023-05-16T04:53:23;63.47;;;23.92;;
60086;SDS011;45960;53.630;55.972;2023-05-16T04:54:25;71.10;;;24.50;;
60086;SDS011;45960;53.630;55.972;2023-05-16T04:55:26;63.33;;;24.05;;
60086;SDS011;45960;53.630;55.972;2023-05-16T04:56:27;53.03;;;21.92;;
60086;SDS011;45960;53.630;55.972;2023-05-16T04:57:28;83.65;;;23.95;;
60086;SDS011;45960;53.630;55.972;2023-05-16T04:58:29;91.15;;;24.75;;
60086;SDS011;45960;53.630;55.972;2023-05-16T04:59:31;55.55;;;21.67;;
60086;SDS011;45960;53.630;55.972;2023-05-16T05:00:32;55.00;;;21.75;;
60086;SDS011;45960;53.630;55.972;2023-05-16T05:01:33;52.80;;;22.42;;
60086;SDS011;45960;53.630;55.972;2023-05-16T05:02:34;44.17;;;22.48;;
60086;SDS011;45960;53.630;55.972;2023-05-16T05:03:35;50.17;;;22.02;;
60086;SDS011;45960;53.630;55.972;2023-05-16T05:04:36;55.30;;;21.98;;
60086;SDS011;45960;53.630;55.972;2023-05-16T05:05:37;52.92;;;22.27;;
60086;SDS011;45960;53.630;55.972;2023-05-16T05:06:38;46.25;;;20.95;;
60086;SDS011;45960;53.630;55.972;2023-05-16T05:07:40;56.03;;;21.67;;
60086;SDS011;45960;53.630;55.972;2023-05-16T05:08:42;47.90;;;21.35;;
60086;SDS011;45960;53.630;55.972;2023-05-16T05:09:43;49.72;;;21.95;;
60086;SDS011;45960;53.630;55.972;2023-05-16T05:10:44;57.47;;;21.80;;
60086;SDS011;45960;53.630;55.972;2023-05-16T05:11:45;64.18;;;22.63;;
60086;SDS011;45960;53.630;55.972;2023-05-16T05:12:46;56.00;;;20.92;;
60086;SDS011;45960;53.630;55.972;2023-05-16T05:13:47;34.60;;;20.17;;
60086;SDS011;45960;53.630;55.972;2023-05-16T05:14:48;56.42;;;21.00;;
60086;SDS011;45960;53.630;55.972;2023-05-16T05:15:49;39.92;;;20.38;;
60086;SDS011;45960;53.630;55.972;2023-05-16T05:16:51;38.00;;;20.33;;
60086;SDS011;45960;53.630;55.972;2023-05-16T05:17:52;35.58;;;20.40;;
60086;SDS011;45960;53.630;55.972;2023-05-16T05:18:54;30.25;;;19.63;;
60086;SDS011;45960;53.630;55.972;2023-05-16T05:19:55;47.20;;;20.48;;
60086;SDS011;45960;53.630;55.972;2023-05-16T05:20:56;38.05;;;19.75;;
60086;SDS011;45960;53.630;55.972;2023-05-16T05:21:57;28.98;;;18.15;;
60086;SDS011;45960;53.630;55.972;2023-05-16T05:22:59;34.88;;;18.80;;
60086;SDS011;45960;53.630;55.972;2023-05-16T05:24:00;33.80;;;19.92;;
60086;SDS011;45960;53.630;55.972;2023-05-16T05:25:01;28.67;;;19.58;;
60086;SDS011;45960;53.630;55.972;2023-05-16T05:26:05;31.70;;;19.17;;
60086;SDS011;45960;53.630;55.972;2023-05-16T05:27:06;32.72;;;21.08;;
60086;SDS011;45960;53.630;55.972;2023-05-16T05:28:07;32.63;;;19.83;;
60086;SDS011;45960;53.630;55.972;2023-05-16T05:29:08;30.98;;;20.73;;
60086;SDS011;45960;53.630;55.972;2023-05-16T05:30:09;32.58;;;19.77;;
60086;SDS011;45960;53.630;55.972;2023-05-16T05:31:11;26.83;;;19.50;;
60086;SDS011;45960;53.630;55.972;2023-05-16T05:32:12;33.42;;;20.17;;
60086;SDS011;45960;53.630;55.972;2023-05-16T05:33:15;30.90;;;20.25;;
60086;SDS011;45960;53.630;55.972;2023-05-16T05:34:18;32.63;;;20.85;;
60086;SDS011;45960;53.630;55.972;2023-05-16T05:35:19;30.65;;;19.67;;
60086;SDS011;45960;53.630;55.972;2023-05-16T05:36:20;31.55;;;19.98;;
60086;SDS011;45960;53.630;55.972;2023-05-16T05:37:21;30.83;;;20.65;;
60086;SDS011;45960;53.630;55.972;2023-05-16T05:38:23;30.00;;;20.40;;
60086;SDS011;45960;53.630;55.972;2023-05-16T05:39:24;30.65;;;19.58;;
60086;SDS011;45960;53.630;55.972;2023-05-16T05:40:26;32.03;;;18.70;;
60086;SDS011;45960;53.630;55.972;2023-05-16T05:41:27;31.88;;;18.38;;
60086;SDS011;45960;53.630;55.972;2023-05-16T05:42:28;28.27;;;20.05;;
60086;SDS011;45960;53.630;55.972;2023-05-16T05:43:29;30.80;;;20.60;;
60086;SDS011;45960;53.630;55.972;2023-05-16T05:44:30;29.77;;;19.15;;
60086;SDS011;45960;53.630;55.972;2023-05-16T05:45:31;28.13;;;19.00;;
60086;SDS011;45960;53.630;55.972;2023-05-16T05:46:32;31.35;;;19.40;;
60086;SDS011;45960;53.630;55.972;2023-05-16T05:47:34;30.77;;;18.67;;
60086;SDS011;45960;53.630;55.972;2023-05-16T05:48:35;32.10;;;20.08;;
60086;SDS011;45960;53.630;55.972;2023-05-16T05:49:36;35.33;;;19.60;;
60086;SDS011;45960;53.630;55.972;2023-05-16T05:50:38;28.98;;;18.90;;
60086;SDS011;45960;53.630;55.972;2023-05-16T05:51:39;29.05;;;19.55;;
60086;SDS011;45960;53.630;55.972;2023-05-16T05:52:40;30.90;;;19.92;;
60086;SDS011;45960;53.630;55.972;2023-05-16T05:53:41;30.02;;;18.77;;
60086;SDS011;45960;53.630;55.972;2023-05-16T05:54:43;28.13;;;19.38;;
60086;SDS011;45960;53.630;55.972;2023-05-16T05:55:44;27.90;;;18.40;;
60086;SDS011;45960;53.630;55.972;2023-05-16T05:56:45;26.20;;;18.40;;
60086;SDS011;45960;53.630;55.972;2023-05-16T05:57:46;37.53;;;18.55;;
60086;SDS011;45960;53.630;55.972;2023-05-16T05:58:47;30.08;;;18.80;;
60086;SDS011;45960;53.630;55.972;2023-05-16T05:59:48;32.92;;;19.65;;
60086;SDS011;45960;53.630;55.972;2023-05-16T06:00:50;30.05;;;18.60;;
60086;SDS011;45960;53.630;55.972;2023-05-16T06:01:51;29.00;;;19.67;;
60086;SDS011;45960;53.630;55.972;2023-05-16T06:02:52;32.90;;;17.02;;
60086;SDS011;45960;53.630;55.972;2023-05-16T06:03:53;29.67;;;18.73;;
60086;SDS011;45960;53.630;55.972;2023-05-16T06:04:54;30.33;;;18.33;;
60086;SDS011;45960;53.630;55.972;2023-05-16T06:05:56;29.45;;;18.13;;
60086;SDS011;45960;53.630;55.972;2023-05-16T06:06:57;33.45;;;18.70;;
60086;SDS011;45960;53.630;55.972;2023-05-16T06:07:58;31.98;;;18.70;;
60086;SDS011;45960;53.630;55.972;2023-05-16T06:08:59;29.27;;;18.70;;
60086;SDS011;45960;53.630;55.972;2023-05-16T06:10:00;28.73;;;19.73;;
60086;SDS011;45960;53.630;55.972;2023-05-16T06:11:05;32.15;;;19.10;;
60086;SDS011;45960;53.630;55.972;2023-05-16T06:12:06;29.90;;;19.40;;